createdAt,value
2022-07-28T00:01:21.881Z,65.2
2022-07-28T00:07:13.518Z,66.3
2022-07-28T00:13:08.503Z,65.9
2022-07-28T00:18:58.111Z,67.2
2022-07-28T00:24:51.805Z,66.3
2022-07-28T00:30:43.015Z,66.5
2022-07-28T00:36:37.246Z,66.2
2022-07-28T00:42:31.188Z,68
2022-07-28T00:48:24.328Z,67.3
2022-07-28T00:54:18.670Z,66.7
2022-07-28T01:00:11.102Z,65.9
2022-07-28T01:06:02.326Z,65.4
2022-07-28T01:11:55.627Z,66
2022-07-28T01:17:48.539Z,66.4
2022-07-28T01:23:39.628Z,65.8
2022-07-28T01:29:30.768Z,66.6
2022-07-28T01:35:22.163Z,66.5
2022-07-28T01:41:14.353Z,66.4
2022-07-28T01:47:06.798Z,66.2
2022-07-28T01:52:58.354Z,65.9
2022-07-28T01:58:49.785Z,66.3
2022-07-28T02:04:43.221Z,66.3
2022-07-28T02:10:36.649Z,67.6
2022-07-28T02:16:28.678Z,67
2022-07-28T02:22:20.334Z,66.7
2022-07-28T02:28:14.071Z,69.2
2022-07-28T02:34:09.884Z,68.8
2022-07-28T02:40:08.536Z,69.1
2022-07-28T02:46:00.161Z,67.5
2022-07-28T02:51:56.999Z,68.9
2022-07-28T02:57:57.001Z,69.2
2022-07-28T03:03:52.308Z,67.7
2022-07-28T03:09:44.158Z,69.1
2022-07-28T03:15:35.078Z,68.2
2022-07-28T03:21:27.553Z,68.7
2022-07-28T03:27:19.964Z,70.6
2022-07-28T03:33:12.751Z,71.6
2022-07-28T03:39:05.271Z,71
2022-07-28T03:44:56.753Z,72
2022-07-28T03:50:49.337Z,72.2
2022-07-28T03:56:39.321Z,71.1
2022-07-28T04:02:32.430Z,71.1
2022-07-28T04:08:28.303Z,72.3
2022-07-28T04:14:21.535Z,71
2022-07-28T04:20:16.068Z,71.8
2022-07-28T04:26:08.514Z,71.7
2022-07-28T04:33:09.570Z,72.1
2022-07-28T04:39:03.025Z,71
2022-07-28T04:44:55.334Z,71
2022-07-28T04:50:49.193Z,71.5
2022-07-28T04:56:45.437Z,71.7
2022-07-28T05:02:36.866Z,71.1
2022-07-28T05:08:31.691Z,70.8
2022-07-28T05:14:27.254Z,69.7
2022-07-28T05:20:20.418Z,62.3
2022-07-28T05:26:13.698Z,63.6
2022-07-28T05:32:18.720Z,63.1
2022-07-28T05:38:12.735Z,59.8
2022-07-28T05:44:03.179Z,58
2022-07-28T05:49:51.872Z,41.7
2022-07-28T05:56:01.930Z,43.7
2022-07-28T06:01:53.514Z,38.7
2022-07-28T06:07:47.700Z,39.8
2022-07-28T06:13:39.026Z,43.9
2022-07-28T06:19:33.114Z,43.1
2022-07-28T06:25:22.285Z,47.5
2022-07-28T06:31:09.620Z,50.1
2022-07-28T06:37:01.129Z,52.3
2022-07-28T06:42:53.168Z,54
2022-07-28T06:48:43.932Z,54.8
2022-07-28T06:54:35.927Z,55.7
2022-07-28T07:00:38.885Z,55.6
2022-07-28T07:06:31.154Z,55.9
2022-07-28T07:12:28.658Z,56
2022-07-28T07:18:22.295Z,57.9
2022-07-28T07:24:15.090Z,56.4
2022-07-28T07:30:11.212Z,57.8
2022-07-28T07:36:03.154Z,57.6
2022-07-28T07:41:57.462Z,56.9
2022-07-28T07:47:50.183Z,56.6
2022-07-28T07:53:42.553Z,57.1
2022-07-28T07:59:34.424Z,56.9
2022-07-28T08:05:37.402Z,56.7
2022-07-28T08:11:30.447Z,56.6
2022-07-28T08:17:26.734Z,56
2022-07-28T08:23:21.638Z,56.3
2022-07-28T08:29:15.557Z,55.8
2022-07-28T08:35:35.493Z,55.5
2022-07-28T08:41:35.160Z,55.6
2022-07-28T08:47:25.247Z,55.7
2022-07-28T08:53:56.769Z,55.5
2022-07-28T08:59:48.097Z,54.7
2022-07-28T09:05:40.513Z,53.7
2022-07-28T09:11:33.619Z,53.2
2022-07-28T09:17:25.081Z,54.1
2022-07-28T09:23:49.256Z,53.4
2022-07-28T09:29:41.632Z,53.1
2022-07-28T09:35:36.619Z,52.5
2022-07-28T09:41:29.378Z,52.9
2022-07-28T09:47:37.083Z,51.8
2022-07-28T10:06:41.863Z,51.3
2022-07-28T10:18:25.700Z,48.2
2022-07-28T10:24:29.163Z,48.8
2022-07-28T10:30:18.875Z,47.5
2022-07-28T10:36:10.114Z,47.3
2022-07-28T10:42:05.144Z,47.5
2022-07-28T10:47:59.108Z,47.1
2022-07-28T10:53:50.575Z,45.6
2022-07-28T10:59:43.030Z,45
2022-07-28T11:05:45.987Z,44.9
2022-07-28T11:11:37.493Z,45.3
2022-07-28T11:17:36.038Z,45
2022-07-28T11:23:34.863Z,43.8
2022-07-28T11:29:34.034Z,43.7
2022-07-28T11:35:26.958Z,43.4
2022-07-28T11:41:19.422Z,41.4
2022-07-28T11:47:09.251Z,41.8
2022-07-28T11:53:00.988Z,41.5
2022-07-28T11:58:55.575Z,42.6
2022-07-28T12:04:47.107Z,42
2022-07-28T12:10:57.806Z,41.5
2022-07-28T12:16:48.776Z,42.2
2022-07-28T12:22:43.316Z,41.8
2022-07-28T12:28:46.751Z,41.1
2022-07-28T12:34:39.076Z,40
2022-07-28T12:40:42.764Z,40.5
2022-07-28T12:46:42.011Z,39.9
2022-07-28T12:52:35.017Z,40.7
2022-07-28T12:58:26.960Z,40.9
2022-07-28T13:04:39.972Z,40
2022-07-28T13:11:01.725Z,40.3
2022-07-28T13:17:33.115Z,40.7
2022-07-28T13:23:28.810Z,40.3
2022-07-28T13:29:26.552Z,38.4
2022-07-28T13:35:28.018Z,38.9
2022-07-28T13:47:18.415Z,38.4
2022-07-28T13:53:23.023Z,39.4
2022-07-28T13:59:15.491Z,38.7
2022-07-28T14:05:06.378Z,39.6
2022-07-28T14:10:59.224Z,38
2022-07-28T14:17:00.215Z,38.3
2022-07-28T14:23:35.376Z,37.9
2022-07-28T14:29:28.175Z,38.6
2022-07-28T14:35:19.899Z,38.5
2022-07-28T14:41:13.311Z,38.2
2022-07-28T14:47:06.986Z,39.4
2022-07-28T14:52:58.459Z,38.8
2022-07-28T14:58:50.543Z,38.9
2022-07-28T15:04:42.049Z,38.9
2022-07-28T15:10:33.457Z,39.1
2022-07-28T15:16:25.163Z,39.1
2022-07-28T15:22:18.358Z,38.4
2022-07-28T15:28:21.868Z,39.5
2022-07-28T15:34:16.206Z,39
2022-07-28T15:40:25.489Z,38.7
2022-07-28T15:46:25.068Z,39.4
2022-07-28T15:52:16.113Z,39.1
2022-07-28T15:58:08.449Z,39.4
2022-07-28T16:04:11.636Z,38.8
2022-07-28T16:10:04.257Z,40
2022-07-28T16:15:53.846Z,40.1
2022-07-28T16:21:48.878Z,38.9
2022-07-28T16:27:39.823Z,40.3
2022-07-28T16:33:37.743Z,40.2
2022-07-28T16:39:31.141Z,40.2
2022-07-28T16:45:34.939Z,41.1
2022-07-28T16:51:27.370Z,40.9
2022-07-28T16:57:21.938Z,41.4
2022-07-28T17:03:15.115Z,41.5
2022-07-28T17:09:05.228Z,41
2022-07-28T17:14:57.919Z,41.5
2022-07-28T17:20:48.408Z,41.8
2022-07-28T17:33:38.661Z,41.5
2022-07-28T17:39:35.425Z,42.1
2022-07-28T17:45:30.771Z,42.5
2022-07-28T17:51:24.248Z,42.4
2022-07-28T17:57:16.439Z,43.2
2022-07-28T18:03:16.619Z,43.7
2022-07-28T18:15:34.471Z,44.6
2022-07-28T18:21:29.213Z,45
2022-07-28T18:27:34.987Z,45.2
2022-07-28T18:33:33.339Z,45.6
2022-07-28T18:39:25.111Z,46
2022-07-28T18:45:17.690Z,46.2
2022-07-28T18:51:10.321Z,46.3
2022-07-28T18:57:02.845Z,46.4
2022-07-28T19:03:15.414Z,46.6
2022-07-28T19:09:07.448Z,46.8
2022-07-28T19:15:00.894Z,46.9
2022-07-28T19:20:50.038Z,47.3
2022-07-28T19:26:43.267Z,47.6
2022-07-28T19:32:34.554Z,47.6
2022-07-28T19:38:31.354Z,48.1
2022-07-28T19:44:26.881Z,49.4
2022-07-28T19:50:25.149Z,50.2
2022-07-28T19:56:19.248Z,50.5
2022-07-28T20:02:20.086Z,51.8
2022-07-28T20:08:10.944Z,52.8
2022-07-28T20:14:01.827Z,53.2
2022-07-28T20:19:54.454Z,53.7
2022-07-28T20:25:44.754Z,55.1
2022-07-28T20:31:34.945Z,54.3
2022-07-28T20:37:38.763Z,55.8
2022-07-28T20:43:38.112Z,55.9
2022-07-28T20:49:29.247Z,56
2022-07-28T20:55:18.107Z,57.1
2022-07-28T21:01:07.976Z,56.2
2022-07-28T21:07:05.541Z,58.7
2022-07-28T21:13:04.700Z,58.6
2022-07-28T21:25:09.382Z,59
2022-07-28T21:31:01.456Z,59
2022-07-28T21:36:52.307Z,58.7
2022-07-28T21:42:43.839Z,59.6
2022-07-28T21:48:35.492Z,60
2022-07-28T21:54:32.346Z,59.9
2022-07-28T22:00:25.464Z,61.6
2022-07-28T22:06:16.950Z,60.6
2022-07-28T22:12:07.397Z,60.2
2022-07-28T22:17:58.644Z,60.7
2022-07-28T22:23:51.516Z,60.7
2022-07-28T22:29:54.298Z,61
2022-07-28T22:35:47.442Z,62
2022-07-28T22:41:40.806Z,63.8
2022-07-28T22:47:36.969Z,64
2022-07-28T22:53:28.016Z,63.3
2022-07-28T22:59:19.542Z,63.5
2022-07-28T23:05:23.596Z,61.9
2022-07-28T23:11:19.205Z,63.2
2022-07-28T23:17:10.746Z,64.3
2022-07-28T23:23:02.527Z,65.4
2022-07-28T23:28:53.807Z,64.4
2022-07-28T23:34:45.337Z,65.7
2022-07-28T23:40:36.909Z,65.6
2022-07-28T23:46:28.324Z,65.5
2022-07-28T23:52:21.430Z,64.7
2022-07-28T23:58:12.484Z,65.2
